Overview Statistics Trail Chart Weather Telemetry Raw packets
 

This is the latest recevied weather packets stored in our database for station/object KQ4KX. If no packets are shown the sender has not sent any weather packets the latest 10 day(s).

<< 78 79 80 81 82 83 84 >>
Time Temp. Humidity Pressure Rain* Wind** Luminosity Snow
1788015912 31.67° C 77% 1019.3 hPa 0 mm - - -
1788013932 29.44° C 84% 1018.9 hPa 0 mm - - -
1788012973 28.89° C 87% 1018.7 hPa 0 mm - - -
1788012672 28.89° C 86% 1018.7 hPa 0 mm - - -
1788012501 28.33° C 89% 1018.8 hPa 0 mm - - -
1788012372 28.33° C 89% 1018.8 hPa 0 mm - - -
1788012173 28.33° C 89% 1018.7 hPa 0 mm - - -
1788012072 28.33° C 89% 1018.7 hPa 0 mm - - -
1788011571 27.78° C 90% 1018.6 hPa 0 mm - - -
1788011442 27.78° C 90% 1018.6 hPa 0 mm - - -
1788011311 27.78° C 91% 1018.6 hPa 0 mm - - -
1788011142 27.78° C 91% 1018.6 hPa 0 mm - - -
1788008733 26.11° C 95% 1018.6 hPa 0 mm - - -
1788008622 26.11° C 95% 1018.6 hPa 0 mm - - -
1788008472 26.11° C 95% 1018.6 hPa 0 mm - - -
1788008322 26.11° C 95% 1018.6 hPa 0 mm - - -
1788007787 25.56° C 95% 1018.7 hPa 0 mm - - -
1788007692 25.56° C 95% 1018.7 hPa 0 mm - - -
1788007362 25.56° C 95% 1018.7 hPa 0 mm - - -
1788007166 25.56° C 96% 1018.7 hPa 0 mm - - -
1788007062 25.56° C 96% 1018.7 hPa 0 mm - - -
1788006762 25.56° C 96% 1018.6 hPa 0 mm - - -
1788006602 25° C 95% 1018.7 hPa 0 mm - - -
1788006461 25° C 95% 1018.7 hPa 0 mm - - -
1788006161 25° C 96% 1018.8 hPa 0 mm - - -

* Rain latest hour (hover to see other rain measurements)
** Current wind speed in m/s (hover to see current wind gust speed)